Time;durP1;ratioP1;P1;durP2;ratioP2;P2;SDS_P1;SDS_P2;PMS_P1;PMS_P2;Temp;Humidity;BMP_temperature;BMP_pressure;BME280_temperature;BME280_humidity;BME280_pressure;Samples;Min_cycle;Max_cycle;Signal;HPM_P1;HPM_P2
2021/07/24 00:00:48;;;;;;;14.88;10.60;;;16.30;99.90;;;;;;4973462;28;20033;-76
2021/07/24 00:03:14;;;;;;;13.82;9.23;;;16.20;99.90;;;;;;4989444;28;20027;-77
2021/07/24 00:05:39;;;;;;;9.93;7.97;;;16.20;99.90;;;;;;4986931;28;20030;-77
2021/07/24 00:08:05;;;;;;;12.55;9.88;;;16.20;99.90;;;;;;4989030;28;20034;-76
2021/07/24 00:10:31;;;;;;;11.25;9.52;;;16.20;99.90;;;;;;4991080;28;20022;-77
2021/07/24 00:12:56;;;;;;;13.63;10.82;;;16.00;99.90;;;;;;4995335;28;20026;-77
2021/07/24 00:15:22;;;;;;;15.13;10.77;;;16.00;99.90;;;;;;4996149;28;20461;-77
2021/07/24 00:17:47;;;;;;;13.18;10.13;;;16.00;99.90;;;;;;4990766;28;20551;-76
2021/07/24 00:20:13;;;;;;;14.00;11.30;;;16.00;99.90;;;;;;4990599;28;20037;-77
2021/07/24 00:22:39;;;;;;;14.85;10.40;;;16.10;99.90;;;;;;4993117;28;20385;-77
2021/07/24 00:25:05;;;;;;;14.13;11.07;;;16.00;99.90;;;;;;4993959;28;20497;-77
2021/07/24 00:27:30;;;;;;;16.13;11.82;;;16.00;99.90;;;;;;4995332;28;20026;-77
2021/07/24 00:29:56;;;;;;;14.40;10.73;;;15.90;99.90;;;;;;4992913;28;20037;-76
2021/07/24 00:32:22;;;;;;;11.35;9.38;;;15.90;99.90;;;;;;4992704;28;20039;-76
2021/07/24 00:34:47;;;;;;;16.42;11.45;;;15.80;99.90;;;;;;4992608;28;20349;-77
2021/07/24 00:37:19;;;;;;;14.48;10.32;;;15.90;99.90;;;;;;4992938;28;20062;-76
2021/07/24 00:39:45;;;;;;;16.13;11.15;;;15.90;99.90;;;;;;4995533;28;20050;-76
2021/07/24 00:42:24;;;;;;;14.25;10.07;;;15.80;99.90;;;;;;4993187;28;20065;-76
2021/07/24 00:44:52;;;;;;;12.07;9.43;;;15.80;99.90;;;;;;4992561;28;20030;-76
2021/07/24 00:47:38;;;;;;;11.63;10.23;;;15.80;99.90;;;;;;4992487;28;20616;-77
2021/07/24 00:50:04;;;;;;;17.55;10.75;;;15.70;99.90;;;;;;4992329;28;20417;-77
2021/07/24 00:52:30;;;;;;;12.80;10.88;;;15.70;99.90;;;;;;4994006;28;20026;-75
2021/07/24 00:54:56;;;;;;;14.13;10.55;;;15.70;99.90;;;;;;4994832;28;20026;-76
2021/07/24 00:57:22;;;;;;;12.07;9.90;;;15.70;99.90;;;;;;4993605;28;20559;-76
2021/07/24 00:59:47;;;;;;;10.98;9.40;;;15.70;99.90;;;;;;4992213;28;20453;-75
2021/07/24 01:02:14;;;;;;;13.43;9.38;;;15.60;99.90;;;;;;4992113;28;20037;-76
2021/07/24 01:04:40;;;;;;;20.63;11.40;;;15.60;99.90;;;;;;4992419;28;20034;-76
2021/07/24 01:07:08;;;;;;;15.82;11.35;;;15.60;99.90;;;;;;4993243;28;20022;-75
2021/07/24 01:09:34;;;;;;;14.50;10.70;;;15.50;99.90;;;;;;4995005;28;20015;-75
2021/07/24 01:12:04;;;;;;;16.75;11.63;;;15.50;99.90;;;;;;4992136;28;20022;-75
2021/07/24 01:14:33;;;;;;;14.85;11.00;;;15.40;99.90;;;;;;4991836;28;20034;-76
2021/07/24 01:16:59;;;;;;;11.50;8.95;;;15.30;99.90;;;;;;4991797;28;20105;-75
2021/07/24 01:19:25;;;;;;;16.02;10.52;;;15.30;99.90;;;;;;4991374;28;20086;-75
2021/07/24 01:21:51;;;;;;;14.55;10.77;;;15.30;99.90;;;;;;4994243;28;20026;-75
2021/07/24 01:24:17;;;;;;;14.18;10.60;;;15.30;99.90;;;;;;4993043;28;20453;-75
2021/07/24 01:26:44;;;;;;;16.10;11.15;;;15.30;99.90;;;;;;4991718;28;20023;-75
2021/07/24 01:29:14;;;;;;;13.68;10.55;;;15.30;99.90;;;;;;4991544;28;20027;-76
2021/07/24 01:31:40;;;;;;;16.77;10.32;;;15.20;99.90;;;;;;4991664;28;20524;-75
2021/07/24 01:34:06;;;;;;;15.00;10.77;;;15.20;99.90;;;;;;4992771;28;20065;-75
2021/07/24 01:36:32;;;;;;;13.18;10.48;;;15.10;99.90;;;;;;4994357;28;20030;-76
2021/07/24 01:38:57;;;;;;;18.13;11.70;;;15.10;99.90;;;;;;4991423;28;20041;-76
2021/07/24 01:41:23;;;;;;;15.18;10.52;;;15.10;99.90;;;;;;4991572;28;20054;-75
2021/07/24 01:43:48;;;;;;;15.85;11.10;;;15.10;99.90;;;;;;4991421;28;20500;-75
2021/07/24 01:46:14;;;;;;;15.98;11.10;;;15.00;99.90;;;;;;4991455;28;20524;-75
2021/07/24 01:53:55;;;;;;;17.13;11.07;;;15.00;99.90;;;;;;4991779;28;20053;-75
2021/07/24 01:56:24;;;;;;;17.58;11.00;;;15.00;99.90;;;;;;4991174;28;20678;-75
2021/07/24 01:58:50;;;;;;;14.20;10.93;;;15.00;99.90;;;;;;4991053;28;20038;-76
2021/07/24 02:01:18;;;;;;;14.35;11.07;;;15.00;99.90;;;;;;4991165;28;20034;-76
2021/07/24 02:03:45;;;;;;;14.27;10.73;;;15.00;99.90;;;;;;4994164;28;20161;-76
2021/07/24 02:06:13;;;;;;;15.38;10.88;;;15.00;99.90;;;;;;4991458;28;20394;-75
2021/07/24 02:08:45;;;;;;;15.35;10.35;;;14.90;99.90;;;;;;4991030;28;20508;-76
2021/07/24 02:11:12;;;;;;;12.73;10.98;;;14.90;99.90;;;;;;4991058;28;20034;-75
2021/07/24 02:13:38;;;;;;;16.75;10.93;;;14.80;99.90;;;;;;4991103;28;20045;-75
2021/07/24 02:16:06;;;;;;;18.27;11.25;;;14.80;99.90;;;;;;4992002;28;20560;-75
2021/07/24 02:18:33;;;;;;;16.55;11.23;;;14.80;99.90;;;;;;4993284;28;20069;-75
2021/07/24 02:21:01;;;;;;;13.68;10.35;;;14.80;99.90;;;;;;4990637;28;20065;-75
2021/07/24 02:23:27;;;;;;;12.43;10.27;;;14.70;99.90;;;;;;4990751;28;20641;-75
2021/07/24 02:25:53;;;;;;;12.85;10.52;;;14.70;99.90;;;;;;4990692;28;20093;-75
2021/07/24 02:28:18;;;;;;;10.55;9.48;;;14.70;99.90;;;;;;4990556;28;20054;-75
2021/07/24 02:30:45;;;;;;;14.43;9.73;;;14.70;99.90;;;;;;4992685;28;20053;-75
2021/07/24 02:33:10;;;;;;;15.95;10.50;;;14.70;99.90;;;;;;4991105;28;20113;-75
2021/07/24 02:35:36;;;;;;;14.85;9.50;;;14.70;99.90;;;;;;4990400;28;20529;-75
2021/07/24 02:38:03;;;;;;;15.18;11.05;;;14.70;99.90;;;;;;4990298;28;20540;-75
2021/07/24 02:40:29;;;;;;;16.60;11.65;;;14.70;99.90;;;;;;4990808;28;20516;-77
2021/07/24 02:42:55;;;;;;;16.92;11.85;;;14.60;99.90;;;;;;4992621;28;20034;-77
2021/07/24 02:45:21;;;;;;;16.98;11.85;;;14.60;99.90;;;;;;4991591;28;20037;-77
2021/07/24 02:47:46;;;;;;;13.95;10.88;;;14.70;99.90;;;;;;4990360;28;20026;-77
2021/07/24 02:50:12;;;;;;;15.38;11.52;;;14.70;99.90;;;;;;4990005;28;20398;-77
2021/07/24 02:52:38;;;;;;;14.45;11.68;;;14.70;99.90;;;;;;4990624;28;20049;-76
2021/07/24 02:55:05;;;;;;;18.35;11.57;;;14.70;99.90;;;;;;4991774;28;20036;-76
2021/07/24 02:57:31;;;;;;;13.93;10.48;;;14.70;99.90;;;;;;4992542;28;20022;-76
2021/07/24 02:59:57;;;;;;;17.40;12.00;;;14.60;99.90;;;;;;4990100;28;20549;-75
2021/07/24 03:02:22;;;;;;;17.92;11.02;;;14.70;99.90;;;;;;4990363;28;20077;-76
2021/07/24 03:04:48;;;;;;;14.77;10.98;;;14.70;99.90;;;;;;4989971;28;20097;-76
2021/07/24 03:07:14;;;;;;;16.40;11.65;;;14.70;99.90;;;;;;4990168;28;20014;-76
2021/07/24 03:09:39;;;;;;;16.40;11.45;;;14.80;99.90;;;;;;4993242;28;20026;-76
2021/07/24 03:12:06;;;;;;;14.10;10.70;;;14.80;99.90;;;;;;4989976;28;20030;-76
2021/07/24 03:14:31;;;;;;;14.48;10.68;;;14.80;99.90;;;;;;4989838;28;20386;-76
2021/07/24 03:16:57;;;;;;;15.90;11.60;;;14.80;99.90;;;;;;4989697;28;20030;-75
2021/07/24 03:19:22;;;;;;;14.10;11.80;;;14.80;99.90;;;;;;4989637;28;20520;-75
2021/07/24 03:21:48;;;;;;;13.70;11.52;;;14.80;99.90;;;;;;4992514;28;20037;-75
2021/07/24 03:24:14;;;;;;;19.30;12.23;;;14.80;99.90;;;;;;4990550;28;20023;-75
2021/07/24 03:26:40;;;;;;;16.15;11.40;;;14.80;99.90;;;;;;4989766;28;20065;-75
2021/07/24 03:29:07;;;;;;;16.50;11.23;;;14.90;99.90;;;;;;4989461;28;20034;-75
2021/07/24 03:31:33;;;;;;;17.77;11.93;;;14.90;99.90;;;;;;4989620;28;20113;-75
2021/07/24 03:33:59;;;;;;;14.02;11.07;;;14.90;99.90;;;;;;4991762;28;20122;-75
2021/07/24 03:36:24;;;;;;;17.40;11.68;;;15.00;99.90;;;;;;4991068;28;20029;-75
2021/07/24 03:38:50;;;;;;;14.18;10.60;;;15.10;99.90;;;;;;4989271;28;20038;-75
2021/07/24 03:41:16;;;;;;;16.17;11.73;;;15.10;99.90;;;;;;4989513;28;20428;-75
2021/07/24 03:43:42;;;;;;;15.35;11.82;;;15.10;99.90;;;;;;4980146;28;20500;-75
2021/07/24 03:46:21;;;;;;;16.73;11.75;;;15.10;99.90;;;;;;4996854;28;20034;-75
2021/07/24 03:48:47;;;;;;;16.23;11.25;;;15.10;99.90;;;;;;4995601;28;20030;-75
2021/07/24 03:51:13;;;;;;;14.40;11.40;;;15.10;99.90;;;;;;4996631;28;20065;-74
2021/07/24 03:53:40;;;;;;;18.10;12.77;;;15.10;99.90;;;;;;4996075;28;20482;-75
2021/07/24 03:56:06;;;;;;;17.55;12.95;;;15.20;99.90;;;;;;4995731;28;20034;-75
2021/07/24 03:58:31;;;;;;;14.68;11.55;;;15.20;99.90;;;;;;4996129;28;20084;-74
2021/07/24 04:01:00;;;;;;;14.75;11.07;;;15.30;99.90;;;;;;4998102;28;20113;-74
2021/07/24 04:03:25;;;;;;;14.65;10.98;;;15.40;99.90;;;;;;4997494;28;20407;-74
2021/07/24 04:05:52;;;;;;;15.55;11.07;;;15.50;99.90;;;;;;4995896;28;20045;-74
2021/07/24 04:08:18;;;;;;;14.70;11.82;;;15.50;99.90;;;;;;4995828;28;20034;-74
2021/07/24 04:10:45;;;;;;;17.23;11.65;;;15.60;99.90;;;;;;4995666;28;20449;-74
2021/07/24 04:13:11;;;;;;;18.98;12.60;;;15.80;99.90;;;;;;4996315;28;20030;-74
2021/07/24 04:15:38;;;;;;;13.65;11.23;;;16.00;99.90;;;;;;4998969;28;20030;-74
2021/07/24 04:18:07;;;;;;;21.58;13.02;;;16.30;99.90;;;;;;4995707;28;20053;-74
2021/07/24 04:20:36;;;;;;;17.30;14.00;;;16.60;99.90;;;;;;4995661;28;20061;-74
2021/07/24 04:23:01;;;;;;;18.30;13.30;;;16.90;99.90;;;;;;4995563;28;20034;-74
2021/07/24 04:25:27;;;;;;;16.23;13.65;;;17.20;99.90;;;;;;4995512;28;20102;-75
2021/07/24 04:27:53;;;;;;;17.58;12.75;;;17.30;99.90;;;;;;4998091;28;20030;-75
2021/07/24 04:30:18;;;;;;;18.05;12.55;;;17.30;99.90;;;;;;4996780;28;20026;-74
2021/07/24 04:32:44;;;;;;;19.45;16.15;;;17.40;99.90;;;;;;4995647;28;20112;-76
2021/07/24 04:35:10;;;;;;;19.83;15.48;;;17.40;99.90;;;;;;4995621;28;20485;-76
2021/07/24 04:37:35;;;;;;;22.40;16.67;;;17.40;99.90;;;;;;4995700;28;20469;-76
2021/07/24 04:40:02;;;;;;;18.40;15.63;;;17.30;99.90;;;;;;4997227;28;20056;-76
2021/07/24 04:42:28;;;;;;;17.95;14.88;;;17.20;99.90;;;;;;4997589;28;20018;-76
2021/07/24 04:44:54;;;;;;;19.17;15.75;;;17.30;99.90;;;;;;4995441;28;20385;-76
2021/07/24 04:47:19;;;;;;;19.63;14.93;;;17.70;99.90;;;;;;4997010;28;20038;-76
2021/07/24 04:49:48;;;;;;;18.23;15.55;;;17.90;99.90;;;;;;4995098;28;20043;-76
2021/07/24 04:52:15;;;;;;;20.92;15.43;;;17.90;99.90;;;;;;4980325;28;20062;-76
2021/07/24 04:54:42;;;;;;;19.38;16.10;;;18.10;99.90;;;;;;4992203;28;20032;-76
2021/07/24 04:57:08;;;;;;;24.20;17.90;;;18.10;99.90;;;;;;4992267;28;20117;-76
2021/07/24 04:59:46;;;;;;;22.35;17.02;;;18.20;99.90;;;;;;4992171;28;20030;-76
2021/07/24 05:02:15;;;;;;;24.35;17.67;;;18.30;99.90;;;;;;4992228;28;20034;-76
2021/07/24 05:04:41;;;;;;;23.02;18.92;;;18.30;99.90;;;;;;4992407;28;20503;-76
2021/07/24 05:07:07;;;;;;;25.42;18.63;;;18.40;99.90;;;;;;4993167;28;20027;-76
2021/07/24 05:09:32;;;;;;;20.02;17.35;;;18.50;99.90;;;;;;4994595;28;20393;-76
2021/07/24 05:11:58;;;;;;;22.92;18.65;;;18.60;99.90;;;;;;4992039;28;20121;-76
2021/07/24 05:14:24;;;;;;;21.05;18.38;;;18.60;99.90;;;;;;4992057;28;20034;-76
2021/07/24 05:16:49;;;;;;;23.75;19.25;;;18.70;99.90;;;;;;4991873;28;20022;-76
2021/07/24 05:19:15;;;;;;;23.73;18.63;;;18.80;99.90;;;;;;4991923;28;20069;-76
2021/07/24 05:21:41;;;;;;;24.55;18.60;;;18.90;99.90;;;;;;4995496;28;20054;-76
2021/07/24 05:24:06;;;;;;;21.45;19.25;;;19.00;99.90;;;;;;4991549;28;20069;-76
2021/07/24 05:26:32;;;;;;;24.80;20.35;;;19.00;99.90;;;;;;4993285;28;20039;-76
2021/07/24 05:28:58;;;;;;;21.55;19.15;;;19.10;99.90;;;;;;4991692;28;20022;-77
2021/07/24 05:31:25;;;;;;;27.30;18.98;;;19.10;99.90;;;;;;4991874;28;20097;-76
2021/07/24 05:33:50;;;;;;;22.30;17.48;;;19.20;99.90;;;;;;4994035;28;20026;-76
2021/07/24 05:36:16;;;;;;;21.48;18.73;;;19.30;99.90;;;;;;4992614;28;20036;-76
2021/07/24 05:38:42;;;;;;;20.80;16.85;;;19.30;99.90;;;;;;4991210;28;20034;-76
2021/07/24 05:41:07;;;;;;;21.30;17.38;;;19.40;99.90;;;;;;4991628;28;20022;-76
2021/07/24 05:43:33;;;;;;;26.02;18.55;;;19.50;99.90;;;;;;4991488;28;20038;-76
2021/07/24 05:46:02;;;;;;;22.60;18.52;;;19.50;99.90;;;;;;4993815;28;20031;-76
2021/07/24 05:48:28;;;;;;;24.10;17.88;;;19.60;99.90;;;;;;4993153;28;20022;-76
2021/07/24 05:50:54;;;;;;;20.38;18.02;;;19.70;99.90;;;;;;4991132;28;20104;-76
2021/07/24 05:53:20;;;;;;;22.23;18.63;;;19.80;99.90;;;;;;4991610;28;20468;-77
2021/07/24 05:55:46;;;;;;;22.13;17.75;;;20.00;99.90;;;;;;4991432;28;20030;-76
2021/07/24 05:58:11;;;;;;;23.60;17.38;;;20.00;99.90;;;;;;4991680;28;20062;-76
2021/07/24 06:00:37;;;;;;;20.50;17.92;;;20.10;99.90;;;;;;4994441;28;20026;-78
2021/07/24 06:03:03;;;;;;;19.05;16.92;;;20.30;99.90;;;;;;4990818;28;20035;-77
2021/07/24 06:05:28;;;;;;;22.88;17.80;;;20.40;99.90;;;;;;4991099;28;20109;-76
2021/07/24 06:07:54;;;;;;;20.65;18.35;;;20.50;99.90;;;;;;4991192;28;20030;-77
2021/07/24 06:10:19;;;;;;;19.83;17.70;;;20.60;99.90;;;;;;4991157;28;20482;-77
2021/07/24 06:12:48;;;;;;;22.33;18.38;;;20.70;99.90;;;;;;4994054;28;20402;-77
2021/07/24 06:15:14;;;;;;;23.08;17.15;;;20.80;99.90;;;;;;4991904;28;20428;-77
2021/07/24 06:17:39;;;;;;;19.25;15.68;;;20.90;99.90;;;;;;4990624;28;20026;-77
2021/07/24 06:20:06;;;;;;;20.67;16.45;;;21.00;99.90;;;;;;4990827;28;20030;-77
2021/07/24 06:22:31;;;;;;;21.27;15.18;;;21.10;99.90;;;;;;4990886;28;20508;-77
2021/07/24 06:24:57;;;;;;;16.00;13.32;;;21.20;99.90;;;;;;4992876;28;20018;-77
2021/07/24 06:27:22;;;;;;;19.08;14.45;;;21.30;99.90;;;;;;4991799;28;20038;-77
2021/07/24 06:29:48;;;;;;;18.23;12.60;;;21.40;99.90;;;;;;4990779;28;20041;-77
2021/07/24 06:32:14;;;;;;;15.23;12.43;;;21.50;99.90;;;;;;4990461;28;20018;-77
2021/07/24 06:34:40;;;;;;;17.23;13.95;;;21.60;99.90;;;;;;4990796;28;20105;-77
2021/07/24 06:37:06;;;;;;;20.95;12.65;;;21.70;99.90;;;;;;4991851;28;20057;-77
2021/07/24 06:39:32;;;;;;;17.33;12.65;;;21.80;99.90;;;;;;4992909;28;20062;-77
2021/07/24 06:41:58;;;;;;;15.43;12.68;;;21.90;99.90;;;;;;4990394;28;20549;-77
2021/07/24 06:44:23;;;;;;;17.60;12.70;;;22.00;99.90;;;;;;4990343;28;20762;-77
2021/07/24 06:46:49;;;;;;;14.70;12.63;;;22.10;99.90;;;;;;4990448;28;20018;-77
2021/07/24 06:49:15;;;;;;;85.95;14.90;;;22.20;99.90;;;;;;4990113;28;20046;-77
2021/07/24 06:51:40;;;;;;;17.38;11.75;;;22.20;99.90;;;;;;4993871;28;20030;-77
2021/07/24 06:54:06;;;;;;;17.70;11.80;;;22.30;99.90;;;;;;4990497;28;20040;-77
2021/07/24 06:56:33;;;;;;;22.98;12.70;;;22.40;99.90;;;;;;4990213;28;20109;-76
2021/07/24 06:58:59;;;;;;;16.25;12.95;;;22.60;99.90;;;;;;4990023;28;20497;-75
2021/07/24 07:01:24;;;;;;;15.73;11.57;;;22.60;99.90;;;;;;4990252;28;20033;-76
2021/07/24 07:03:50;;;;;;;13.40;11.02;;;22.70;99.90;;;;;;4992770;28;20058;-76
2021/07/24 07:06:16;;;;;;;12.32;9.80;;;22.80;99.90;;;;;;4990763;28;20026;-76
2021/07/24 07:08:42;;;;;;;12.73;10.05;;;22.70;99.90;;;;;;4990070;28;20034;-76
2021/07/24 07:11:08;;;;;;;11.77;10.55;;;22.80;99.90;;;;;;4990082;28;20030;-76
2021/07/24 07:13:34;;;;;;;13.80;10.63;;;22.90;99.90;;;;;;4990016;28;20027;-77
2021/07/24 07:16:07;;;;;;;15.88;10.13;;;23.00;99.90;;;;;;4992086;28;20157;-76
2021/07/24 07:18:34;;;;;;;14.80;9.82;;;23.00;99.90;;;;;;4991907;28;20034;-77
2021/07/24 07:21:00;;;;;;;12.80;10.30;;;23.10;99.90;;;;;;4989497;28;20026;-77
2021/07/24 07:23:26;;;;;;;16.25;10.05;;;23.20;99.90;;;;;;4991006;28;20030;-77
2021/07/24 07:25:51;;;;;;;11.68;9.77;;;23.20;99.90;;;;;;4989784;28;20415;-76
2021/07/24 07:28:17;;;;;;;13.32;9.77;;;23.30;99.90;;;;;;4972838;28;20401;-77
2021/07/24 07:30:43;;;;;;;15.05;9.38;;;23.40;99.90;;;;;;4993084;28;20054;-76
2021/07/24 07:33:08;;;;;;;11.80;9.23;;;23.40;99.90;;;;;;4989443;28;20026;-77
2021/07/24 07:35:34;;;;;;;10.82;9.65;;;23.50;99.90;;;;;;4989390;28;20026;-76
2021/07/24 07:38:00;;;;;;;10.80;9.13;;;23.60;99.90;;;;;;4989604;28;20030;-76
2021/07/24 07:40:26;;;;;;;13.25;8.95;;;23.70;99.90;;;;;;4973059;28;20497;-76
2021/07/24 07:42:51;;;;;;;11.63;9.43;;;23.90;99.90;;;;;;4991826;28;20038;-76
2021/07/24 07:45:17;;;;;;;11.68;9.20;;;24.00;99.90;;;;;;4990549;28;20553;-77
2021/07/24 07:47:43;;;;;;;12.65;9.07;;;24.10;99.90;;;;;;4989372;28;20113;-76
2021/07/24 07:50:10;;;;;;;18.90;9.82;;;24.10;99.90;;;;;;4989284;28;20129;-76
2021/07/24 07:52:35;;;;;;;16.05;9.93;;;24.20;99.90;;;;;;4990017;28;20442;-77
2021/07/24 07:55:02;;;;;;;15.10;9.05;;;24.30;99.90;;;;;;4989298;28;20042;-78
2021/07/24 07:57:29;;;;;;;9.63;8.63;;;24.30;99.90;;;;;;4990858;28;20482;-78
2021/07/24 07:59:55;;;;;;;14.52;9.65;;;24.30;99.90;;;;;;4987219;28;20515;-78
2021/07/24 08:02:20;;;;;;;14.73;10.07;;;24.40;99.90;;;;;;4991080;28;20031;-77
2021/07/24 08:04:48;;;;;;;15.68;9.88;;;24.40;99.90;;;;;;4987462;28;20049;-78
2021/07/24 08:07:17;;;;;;;10.88;9.65;;;24.40;99.90;;;;;;4987701;28;20019;-77
2021/07/24 08:09:43;;;;;;;13.20;9.98;;;24.40;99.90;;;;;;4988457;28;20029;-77
2021/07/24 08:12:09;;;;;;;14.65;9.63;;;24.40;99.90;;;;;;4973622;28;20022;-77
2021/07/24 08:14:34;;;;;;;11.57;9.55;;;24.40;99.90;;;;;;4987071;28;20077;-77
2021/07/24 08:17:00;;;;;;;13.85;9.57;;;24.40;99.90;;;;;;4986896;28;20409;-77
2021/07/24 08:19:26;;;;;;;10.43;8.38;;;24.20;99.90;;;;;;4988955;28;20398;-78
2021/07/24 08:21:52;;;;;;;10.05;8.48;;;24.30;99.90;;;;;;4991541;28;20385;-78
2021/07/24 08:24:18;;;;;;;14.50;9.60;;;24.30;99.90;;;;;;4990352;28;20161;-78
2021/07/24 08:26:44;;;;;;;10.68;9.57;;;24.40;99.90;;;;;;4989086;28;20173;-78
2021/07/24 08:29:09;;;;;;;11.73;8.70;;;24.40;99.90;;;;;;4989777;28;20113;-78
2021/07/24 08:31:35;;;;;;;13.70;8.65;;;24.40;99.90;;;;;;4992856;28;20746;-78
2021/07/24 08:34:00;;;;;;;11.13;8.20;;;24.40;99.90;;;;;;4994882;28;20041;-78
2021/07/24 08:36:26;;;;;;;17.58;9.43;;;24.50;99.90;;;;;;4994248;28;20026;-77
2021/07/24 08:38:52;;;;;;;12.48;8.73;;;24.60;99.90;;;;;;4992622;28;20114;-77
2021/07/24 08:41:17;;;;;;;10.30;7.50;;;24.70;99.90;;;;;;4992633;28;20048;-78
2021/07/24 08:43:46;;;;;;;12.93;7.47;;;24.90;99.90;;;;;;4992700;28;20365;-77
2021/07/24 08:46:12;;;;;;;9.95;7.10;;;25.00;97.90;;;;;;4993239;28;20037;-77
2021/07/24 08:48:38;;;;;;;13.02;7.32;;;25.20;97.40;;;;;;4995685;28;20085;-78
2021/07/24 08:51:05;;;;;;;13.15;7.60;;;25.50;97.00;;;;;;4977423;28;20145;-77
2021/07/24 08:53:40;;;;;;;9.65;7.20;;;25.70;95.60;;;;;;4992578;28;20489;-78
2021/07/24 08:56:14;;;;;;;13.05;7.65;;;25.90;96.00;;;;;;4992458;28;20478;-78
2021/07/24 08:58:42;;;;;;;10.02;7.88;;;26.20;94.60;;;;;;4992427;28;20042;-78
2021/07/24 09:01:17;;;;;;;8.50;7.50;;;26.30;94.30;;;;;;4976090;28;20041;-77
2021/07/24 09:03:44;;;;;;;7.68;6.88;;;26.50;95.00;;;;;;4991878;28;20165;-77
2021/07/24 09:06:10;;;;;;;10.15;7.78;;;26.60;94.60;;;;;;4992460;28;20034;-77
2021/07/24 09:08:36;;;;;;;9.10;7.75;;;26.80;94.20;;;;;;4992240;28;20030;-77
2021/07/24 09:11:02;;;;;;;11.05;7.25;;;26.90;93.50;;;;;;4992103;28;20114;-78
2021/07/24 09:13:30;;;;;;;8.68;7.50;;;27.00;93.00;;;;;;4992063;28;20026;-77
2021/07/24 09:15:55;;;;;;;11.73;7.82;;;26.90;92.40;;;;;;4994582;28;20466;-78
2021/07/24 09:18:23;;;;;;;9.65;7.47;;;26.80;92.00;;;;;;4992992;28;20112;-77
2021/07/24 09:20:50;;;;;;;14.88;8.63;;;26.60;93.20;;;;;;4993226;28;20030;-77
2021/07/24 09:23:28;;;;;;;10.88;7.82;;;26.30;94.80;;;;;;4991930;28;20095;-78
2021/07/24 09:25:55;;;;;;;10.25;8.77;;;26.20;94.50;;;;;;4991893;28;20038;-78
2021/07/24 09:28:21;;;;;;;11.68;8.20;;;26.10;96.00;;;;;;4991888;28;20071;-77
2021/07/24 09:30:46;;;;;;;10.98;8.40;;;25.90;95.80;;;;;;4994985;28;20031;-78
2021/07/24 09:33:14;;;;;;;9.52;8.38;;;25.90;94.60;;;;;;4992092;28;20034;-77
2021/07/24 09:35:58;;;;;;;9.45;7.57;;;25.80;95.10;;;;;;4991646;28;20037;-77
2021/07/24 09:38:32;;;;;;;14.30;7.93;;;25.70;93.90;;;;;;4991404;28;20046;-78
2021/07/24 09:41:03;;;;;;;10.10;7.72;;;25.90;95.10;;;;;;4991117;28;20026;-77
2021/07/24 09:43:29;;;;;;;14.55;8.18;;;25.90;94.70;;;;;;4991745;28;20050;-78
2021/07/24 09:46:14;;;;;;;10.45;7.45;;;26.00;93.40;;;;;;4993972;28;20037;-78
2021/07/24 09:48:45;;;;;;;10.90;8.15;;;26.10;91.40;;;;;;4994855;28;20052;-77
2021/07/24 09:51:12;;;;;;;10.40;8.13;;;26.20;93.70;;;;;;4993273;28;20038;-77
2021/07/24 09:53:40;;;;;;;11.50;8.00;;;26.20;94.50;;;;;;4991800;28;20046;-77
2021/07/24 09:56:11;;;;;;;10.65;7.88;;;26.10;94.10;;;;;;4991485;28;20022;-77
2021/07/24 09:58:38;;;;;;;10.88;7.97;;;26.00;92.80;;;;;;4991091;28;20042;-77
2021/07/24 10:01:09;;;;;;;9.00;7.70;;;26.00;93.80;;;;;;4992889;28;20025;-77
2021/07/24 10:03:37;;;;;;;9.50;8.40;;;26.00;94.50;;;;;;4993594;28;20030;-77
2021/07/24 10:06:13;;;;;;;11.23;7.40;;;26.10;95.50;;;;;;4991038;28;20030;-77
2021/07/24 10:08:44;;;;;;;8.98;7.35;;;26.20;94.10;;;;;;4991133;28;20038;-77
2021/07/24 10:11:10;;;;;;;8.02;7.18;;;26.20;92.60;;;;;;4991076;28;20026;-77
2021/07/24 10:13:42;;;;;;;9.80;7.85;;;26.10;91.10;;;;;;4990884;28;20084;-77
2021/07/24 10:16:08;;;;;;;7.72;6.93;;;26.20;92.40;;;;;;4992084;28;20034;-76
2021/07/24 10:18:34;;;;;;;9.05;7.72;;;26.40;91.10;;;;;;4993212;28;20130;-77
2021/07/24 10:21:00;;;;;;;9.25;7.90;;;26.40;91.30;;;;;;4990841;28;20030;-76
2021/07/24 10:23:26;;;;;;;9.93;7.82;;;26.50;91.20;;;;;;4990696;28;20385;-77
2021/07/24 10:26:14;;;;;;;9.20;6.75;;;26.50;90.50;;;;;;4990865;28;20014;-77
2021/07/24 10:28:54;;;;;;;11.18;7.85;;;26.60;90.60;;;;;;4990592;28;20117;-76
2021/07/24 10:31:29;;;;;;;8.80;7.38;;;26.50;91.90;;;;;;4976010;28;20062;-77
2021/07/24 10:33:59;;;;;;;10.77;8.05;;;26.50;91.90;;;;;;4993183;28;20035;-77
2021/07/24 10:36:43;;;;;;;12.13;7.70;;;26.50;92.50;;;;;;4991789;28;20037;-76
2021/07/24 10:39:18;;;;;;;9.50;7.07;;;26.60;92.10;;;;;;4991748;28;20035;-76
2021/07/24 10:42:09;;;;;;;12.55;7.32;;;26.70;89.10;;;;;;4990635;28;20034;-78
2021/07/24 10:44:40;;;;;;;8.38;6.57;;;26.70;92.70;;;;;;4990585;28;20445;-78
2021/07/24 10:47:10;;;;;;;7.93;6.65;;;26.90;88.10;;;;;;4990263;28;20393;-77
2021/07/24 10:49:35;;;;;;;8.02;6.65;;;26.90;89.00;;;;;;4990037;28;20560;-78
2021/07/24 10:52:06;;;;;;;8.57;6.40;;;27.00;90.50;;;;;;4991724;28;20035;-78
2021/07/24 10:54:33;;;;;;;6.80;6.13;;;27.10;91.30;;;;;;4992816;28;20505;-76
2021/07/24 10:56:59;;;;;;;16.45;7.05;;;27.20;88.20;;;;;;4989884;28;20027;-77
2021/07/24 10:59:27;;;;;;;8.43;6.40;;;27.30;85.00;;;;;;4975138;28;20052;-77
2021/07/24 11:01:53;;;;;;;7.03;6.25;;;27.50;81.30;;;;;;4989999;28;20046;-76
2021/07/24 11:04:37;;;;;;;28.23;8.18;;;27.40;79.30;;;;;;4989991;28;20040;-77
2021/07/24 11:07:21;;;;;;;10.57;6.80;;;27.40;79.20;;;;;;4991751;28;20028;-77
2021/07/24 11:10:06;;;;;;;9.98;6.75;;;27.60;77.40;;;;;;4989725;28;20034;-77
2021/07/24 11:12:40;;;;;;;6.60;5.95;;;27.70;75.20;;;;;;4991999;28;20113;-77
2021/07/24 11:15:07;;;;;;;8.88;6.10;;;27.80;76.90;;;;;;4989831;28;20098;-77
2021/07/24 11:17:33;;;;;;;8.68;6.32;;;28.00;75.50;;;;;;4991119;28;20038;-77
2021/07/24 11:19:59;;;;;;;7.55;6.22;;;28.10;74.40;;;;;;4989990;28;20028;-77
2021/07/24 11:22:28;;;;;;;11.45;7.32;;;28.10;73.70;;;;;;4990942;28;20037;-76
2021/07/24 11:24:57;;;;;;;11.98;7.13;;;28.00;74.70;;;;;;4992135;28;20061;-76
2021/07/24 11:27:30;;;;;;;10.57;8.50;;;27.90;81.30;;;;;;4990863;28;20030;-76
2021/07/24 11:30:09;;;;;;;12.10;8.30;;;27.80;81.30;;;;;;4974982;28;20022;-76
2021/07/24 11:32:38;;;;;;;9.30;7.63;;;27.70;84.40;;;;;;4989821;28;20038;-76
2021/07/24 11:35:14;;;;;;;8.75;7.07;;;27.60;86.00;;;;;;4989616;28;20029;-76
2021/07/24 11:37:44;;;;;;;8.52;7.63;;;27.40;87.10;;;;;;4989845;28;20030;-76
2021/07/24 11:40:15;;;;;;;13.57;7.85;;;27.40;88.70;;;;;;4972876;28;20070;-76
2021/07/24 11:42:42;;;;;;;8.52;7.30;;;27.20;90.20;;;;;;4992950;28;20539;-77
2021/07/24 11:45:08;;;;;;;9.73;7.95;;;27.10;88.60;;;;;;4974649;28;20026;-76
2021/07/24 11:47:34;;;;;;;8.80;7.90;;;27.10;88.70;;;;;;4989458;28;20381;-76
2021/07/24 11:50:19;;;;;;;10.05;7.65;;;26.90;89.70;;;;;;4989378;28;20054;-76
2021/07/24 11:52:51;;;;;;;11.98;7.57;;;26.80;89.40;;;;;;4990027;28;20034;-75
2021/07/24 11:55:35;;;;;;;54.85;10.55;;;26.80;87.20;;;;;;4975685;28;20023;-77
2021/07/24 11:58:07;;;;;;;15.32;7.25;;;26.80;89.10;;;;;;4991483;28;20040;-77
2021/07/24 12:00:55;;;;;;;9.50;7.30;;;26.70;89.20;;;;;;4991736;28;20117;-76
2021/07/24 12:03:24;;;;;;;10.93;8.07;;;26.70;90.30;;;;;;4993041;28;20030;-76
2021/07/24 12:06:08;;;;;;;10.73;7.30;;;26.60;90.10;;;;;;4978443;28;20030;-76
2021/07/24 12:08:35;;;;;;;9.38;7.47;;;26.50;90.60;;;;;;4992763;28;20041;-77
2021/07/24 12:11:01;;;;;;;12.15;8.45;;;26.50;89.30;;;;;;4990878;28;20072;-76
2021/07/24 12:13:28;;;;;;;10.40;8.23;;;26.50;91.00;;;;;;4991049;28;20023;-76
2021/07/24 12:16:03;;;;;;;8.20;7.07;;;26.50;90.10;;;;;;4994427;28;20022;-76
2021/07/24 12:18:38;;;;;;;10.40;8.23;;;26.50;90.00;;;;;;4994422;28;20517;-77
2021/07/24 12:21:09;;;;;;;23.05;8.50;;;26.60;90.70;;;;;;4990748;28;20041;-76
2021/07/24 12:23:36;;;;;;;9.63;7.47;;;26.70;91.10;;;;;;4990215;28;20580;-76
2021/07/24 12:26:23;;;;;;;14.20;8.18;;;26.60;89.50;;;;;;4991007;28;20061;-76
2021/07/24 12:28:49;;;;;;;13.18;8.88;;;26.60;90.80;;;;;;4990856;28;20026;-76
2021/07/24 12:31:22;;;;;;;12.25;8.43;;;26.60;91.20;;;;;;4991380;28;20027;-76
2021/07/24 12:33:52;;;;;;;8.73;7.90;;;26.80;89.40;;;;;;4992021;28;20070;-77
2021/07/24 12:36:20;;;;;;;10.63;7.57;;;26.80;89.80;;;;;;4995448;28;20555;-77
2021/07/24 12:38:46;;;;;;;10.95;8.07;;;26.80;90.70;;;;;;4990245;28;20104;-77
2021/07/24 12:41:12;;;;;;;10.77;7.90;;;26.70;91.10;;;;;;4990636;28;20102;-75